Time;durP1;ratioP1;P1;durP2;ratioP2;P2;SDS_P1;SDS_P2;PMS_P1;PMS_P2;Temp;Humidity;BMP_temperature;BMP_pressure;BME280_temperature;BME280_humidity;BME280_pressure;Samples;Min_cycle;Max_cycle;Signal;HPM_P1;HPM_P2
2022/12/14 00:00:31;;;;;;;;;20.50;18.00;;;;;12.31;76.17;100649.47;146610;675;46020;-79
2022/12/14 00:03:26;;;;;;;;;21.50;18.00;;;;;12.32;75.75;100646.03;146611;592;46016;-80
2022/12/14 00:06:24;;;;;;;;;22.25;17.25;;;;;12.35;75.77;100643.56;146616;593;46020;-81
2022/12/14 00:09:22;;;;;;;;;25.25;19.25;;;;;12.38;75.37;100655.81;146612;602;47014;-80
2022/12/14 00:12:15;;;;;;;;;22.00;20.00;;;;;12.40;75.74;100662.00;146614;629;46020;-81
2022/12/14 00:15:08;;;;;;;;;21.50;18.75;;;;;12.41;75.64;100656.84;146609;601;46012;-80
2022/12/14 00:18:11;;;;;;;;;18.00;15.50;;;;;12.44;75.84;100666.47;146617;575;46020;-80
2022/12/14 00:21:08;;;;;;;;;19.00;18.00;;;;;12.43;75.74;100659.53;146613;606;46016;-80
2022/12/14 00:24:03;;;;;;;;;19.75;19.00;;;;;12.44;75.86;100669.97;146613;588;46011;-80
2022/12/14 00:26:56;;;;;;;;;24.25;19.50;;;;;12.43;76.10;100668.19;146611;613;46014;-80
2022/12/14 00:30:04;;;;;;;;;21.00;18.00;;;;;12.40;75.09;100662.88;146609;610;46020;-81
2022/12/14 00:32:58;;;;;;;;;18.50;15.50;;;;;12.35;75.76;100666.97;146613;581;46012;-78
2022/12/14 00:35:59;;;;;;;;;23.50;22.75;;;;;12.32;75.08;100681.56;146613;621;47010;-77
2022/12/14 00:38:51;;;;;;;;;30.00;26.25;;;;;12.31;75.23;100683.28;146604;628;47012;-77
2022/12/14 00:41:47;;;;;;;;;33.50;29.50;;;;;12.35;75.22;100672.19;146614;604;46012;-79
2022/12/14 00:44:40;;;;;;;;;31.50;29.00;;;;;12.40;75.10;100680.19;146611;633;46015;-81
2022/12/14 00:47:38;;;;;;;;;24.75;22.50;;;;;12.44;75.04;100682.97;146621;598;46020;-79
2022/12/14 00:50:37;;;;;;;;;28.25;27.00;;;;;12.52;75.30;100687.59;146614;619;46016;-81
2022/12/14 00:53:33;;;;;;;;;21.00;17.75;;;;;12.55;75.61;100691.22;146616;577;46010;-80
2022/12/14 00:56:31;;;;;;;;;16.00;14.75;;;;;12.56;75.83;100686.94;146619;613;46016;-81
2022/12/14 00:59:31;;;;;;;;;18.25;18.00;;;;;12.55;75.64;100692.94;146613;581;46010;-79
2022/12/14 01:02:23;;;;;;;;;19.50;16.50;;;;;12.50;75.75;100678.88;146616;577;46915;-80
2022/12/14 01:05:20;;;;;;;;;20.75;18.50;;;;;12.49;75.77;100685.75;146620;587;45020;-79
2022/12/14 01:08:23;;;;;;;;;17.00;15.00;;;;;12.51;75.61;100688.44;146615;676;46017;-79
2022/12/14 01:11:16;;;;;;;;;19.50;16.75;;;;;12.49;75.39;100683.16;146620;609;46010;-80
2022/12/14 01:14:14;;;;;;;;;20.75;19.00;;;;;12.48;75.58;100687.47;146611;594;46012;-82
2022/12/14 01:17:07;;;;;;;;;19.75;18.00;;;;;12.47;75.70;100688.31;146619;600;46020;-81
2022/12/14 01:20:07;;;;;;;;;17.00;15.75;;;;;12.45;76.05;100683.84;146616;639;46016;-76
2022/12/14 01:23:12;;;;;;;;;;;;;;;;;;;;;
2022/12/14 01:26:06;;;;;;;;;23.25;16.00;;;;;12.44;76.11;100680.38;146615;588;46016;-75
2022/12/14 01:29:19;;;;;;;;;18.50;17.00;;;;;12.47;75.43;100675.31;146611;630;46010;-76
2022/12/14 01:32:14;;;;;;;;;14.50;13.25;;;;;12.46;76.33;100683.94;146615;613;46017;-78
2022/12/14 01:35:26;;;;;;;;;;;;;;;;;;;;;
2022/12/14 01:38:18;;;;;;;;;15.25;14.75;;;;;12.42;76.74;100675.91;146612;588;46913;-78
2022/12/14 01:41:23;;;;;;;;;18.00;16.75;;;;;12.38;76.83;100680.09;146617;588;46010;-78
2022/12/14 01:44:58;;;;;;;;;18.25;15.50;;;;;9.55;75.66;100180.50;146612;593;46015;-78
2022/12/14 01:48:07;;;;;;;;;21.50;19.75;;;;;12.37;76.47;100667.94;146616;632;46020;-79
2022/12/14 01:51:02;;;;;;;;;17.00;15.00;;;;;12.35;77.09;100672.19;146615;610;46016;-78
2022/12/14 01:53:57;;;;;;;;;14.75;13.25;;;;;12.31;77.22;100670.28;146614;598;47011;-77
2022/12/14 01:56:56;;;;;;;;;14.00;13.00;;;;;12.28;77.22;100664.94;146613;570;46014;-78
2022/12/14 02:00:07;;;;;;;;;17.25;16.75;;;;;12.29;77.06;100661.50;146608;605;46020;-79
2022/12/14 02:03:12;;;;;;;;;21.25;16.75;;;;;12.34;77.21;100662.59;146612;606;46914;-80
2022/12/14 02:06:32;;;;;;;;;14.75;14.75;;;;;12.11;77.22;100621.72;146618;670;46020;-78
2022/12/14 02:10:10;;;;;;;;;17.00;14.75;;;;;9.53;76.19;100173.47;146610;611;46016;-79
2022/12/14 02:13:35;;;;;;;;;16.75;15.75;;;;;12.38;76.60;100664.50;146615;591;46020;-79
2022/12/14 02:16:27;;;;;;;;;15.50;12.75;;;;;12.10;77.05;100625.16;146613;628;46017;-77
2022/12/14 02:19:32;;;;;;;;;;;;;;;;;;;;;
2022/12/14 02:23:02;;;;;;;;;17.75;15.00;;;;;12.35;76.50;100669.56;146612;573;46016;-80
2022/12/14 02:26:58;;;;;;;;;16.50;13.75;;;;;12.36;75.94;100681.75;146614;614;47010;-81
2022/12/14 02:30:36;;;;;;;;;18.50;16.50;;;;;12.34;76.76;100672.13;146612;581;46016;-77
2022/12/14 02:34:00;;;;;;;;;16.50;14.50;;;;;12.34;76.62;100682.53;146611;570;46020;-78
2022/12/14 02:37:32;;;;;;;;;20.00;17.25;;;;;12.31;76.36;100685.88;146610;576;46037;-77
2022/12/14 02:40:59;;;;;;;;;19.00;17.00;;;;;12.27;75.82;100686.53;146615;593;46020;-77
2022/12/14 02:44:30;;;;;;;;;17.75;15.25;;;;;12.27;76.31;100694.34;146608;592;47012;-77
2022/12/14 02:48:31;;;;;;;;;;;;;;;;;;;;;
2022/12/14 02:51:54;;;;;;;;;19.25;17.25;;;;;12.27;76.36;100698.66;146617;614;46017;-74
2022/12/14 02:55:25;;;;;;;;;18.25;16.75;;;;;12.30;76.34;100699.66;146621;584;46012;-74
2022/12/14 02:58:42;;;;;;;;;17.25;16.00;;;;;9.53;75.87;100207.13;146615;576;46016;-75
2022/12/14 03:01:57;;;;;;;;;15.25;13.75;;;;;12.36;77.43;100699.06;146617;574;46023;-79
2022/12/14 03:05:04;;;;;;;;;14.75;13.00;;;;;12.36;76.78;100692.16;146613;608;46012;-79
2022/12/14 03:08:20;;;;;;;;;13.50;12.50;;;;;12.37;76.04;100685.25;146608;610;47010;-80
2022/12/14 03:11:18;;;;;;;;;16.75;12.50;;;;;12.37;77.31;100693.94;146612;657;47012;-81
2022/12/14 03:14:45;;;;;;;;;14.50;10.00;;;;;12.35;77.22;100687.78;146634;634;45022;-76
2022/12/14 03:17:45;;;;;;;;;15.50;13.00;;;;;12.31;77.88;100680.69;146632;604;45016;-76
2022/12/14 03:20:40;;;;;;;;;15.75;14.50;;;;;12.28;78.13;100680.53;146633;617;46010;-77
2022/12/14 03:23:52;;;;;;;;;16.25;14.75;;;;;12.25;78.14;100685.59;146632;570;45012;-78
2022/12/14 03:27:16;;;;;;;;;14.00;14.00;;;;;9.52;77.38;100213.13;146634;570;45020;-79
2022/12/14 03:30:26;;;;;;;;;14.00;12.50;;;;;12.20;77.80;100681.91;146630;571;45020;-80
2022/12/14 03:33:40;;;;;;;;;15.00;15.00;;;;;12.22;77.98;100694.16;146633;646;45010;-80
2022/12/14 03:37:06;;;;;;;;;21.50;18.50;;;;;12.25;77.60;100690.81;146631;609;45893;-76
2022/12/14 03:40:05;;;;;;;;;30.50;27.75;;;;;12.29;78.48;100689.22;146628;576;46010;-74
2022/12/14 03:43:47;;;;;;;;;26.25;23.00;;;;;10.93;77.40;100453.75;146630;648;45914;-74
2022/12/14 03:47:39;;;;;;;;;24.00;19.50;;;;;9.51;76.57;100201.91;146636;616;45010;-74
2022/12/14 03:51:01;;;;;;;;;17.50;15.00;;;;;9.59;76.36;100207.41;146627;567;46021;-74
2022/12/14 03:54:13;;;;;;;;;20.00;18.25;;;;;12.33;76.46;100679.00;146634;604;45020;-73
2022/12/14 03:57:42;;;;;;;;;17.75;13.50;;;;;9.77;75.72;100243.63;146632;575;45016;-74
2022/12/14 04:01:08;;;;;;;;;14.50;12.75;;;;;12.32;76.34;100690.25;146634;595;45020;-73
2022/12/14 04:04:16;;;;;;;;;16.50;11.75;;;;;12.32;76.57;100695.44;146633;571;45025;-73
2022/12/14 04:07:24;;;;;;;;;12.25;12.25;;;;;12.33;76.09;100696.31;146634;606;45021;-74
2022/12/14 04:20:59;;;;;;;;;16.50;14.25;;;;;12.17;76.18;100723.34;146632;617;46010;-74
2022/12/14 04:27:46;;;;;;;;;15.50;14.50;;;;;9.44;75.67;100249.00;146636;578;45010;-77
2022/12/14 04:30:58;;;;;;;;;;;;;;;;;;;;;
2022/12/14 04:34:06;;;;;;;;;15.00;12.25;;;;;12.21;76.50;100730.47;146632;625;46010;-80
2022/12/14 04:37:18;;;;;;;;;21.25;18.00;;;;;12.22;76.49;100730.56;146627;570;45032;-79
2022/12/14 04:40:55;;;;;;;;;17.00;13.75;;;;;9.39;76.12;100230.66;146633;605;46010;-77
2022/12/14 04:43:58;;;;;;;;;16.75;15.25;;;;;12.20;76.95;100723.50;146631;599;45014;-80
2022/12/14 04:47:16;;;;;;;;;17.00;13.75;;;;;12.20;76.88;100723.50;146618;617;46010;-79
2022/12/14 04:51:00;;;;;;;;;11.00;10.25;;;;;12.20;76.58;100726.09;146625;610;46016;-79
2022/12/14 04:54:24;;;;;;;;;;;;;;;;;;;;;
2022/12/14 04:57:49;;;;;;;;;13.00;11.75;;;;;12.18;76.77;100730.31;146620;582;46012;-79
2022/12/14 05:01:03;;;;;;;;;12.50;11.00;;;;;11.96;77.36;100694.69;146628;609;46012;-73
2022/12/14 05:04:26;;;;;;;;;14.75;12.00;;;;;12.18;77.72;100738.13;146621;619;46012;-78
2022/12/14 05:07:52;;;;;;;;;11.75;9.25;;;;;12.10;76.25;100745.59;146628;566;46021;-75
2022/12/14 05:11:06;;;;;;;;;12.00;8.50;;;;;12.09;76.66;100743.81;146626;646;46012;-79
2022/12/14 05:13:59;;;;;;;;;13.75;11.50;;;;;12.15;76.53;100751.91;146631;628;45030;-79
2022/12/14 05:17:12;;;;;;;;;12.00;11.25;;;;;12.22;76.87;100755.66;146623;581;46016;-79
2022/12/14 05:20:21;;;;;;;;;13.50;11.00;;;;;12.25;76.51;100753.19;146620;625;46021;-78
2022/12/14 05:23:14;;;;;;;;;17.00;13.25;;;;;12.29;77.46;100762.03;146623;579;47016;-78
2022/12/14 05:26:12;;;;;;;;;17.25;14.50;;;;;12.27;77.37;100751.53;146626;668;46010;-80
2022/12/14 05:29:24;;;;;;;;;;;;;;;;;;;;;
2022/12/14 05:32:30;;;;;;;;;;;;;;;;;;;;;
2022/12/14 05:35:30;;;;;;;;;11.75;10.00;;;;;12.24;76.88;100760.13;146626;607;46017;-80
2022/12/14 05:38:34;;;;;;;;;7.75;7.25;;;;;12.23;76.91;100762.63;146631;598;46020;-78
2022/12/14 05:41:41;;;;;;;;;7.25;6.00;;;;;12.22;77.10;100771.25;146632;591;46012;-73
2022/12/14 05:44:43;;;;;;;;;10.25;8.00;;;;;12.22;77.49;100779.94;146631;632;46010;-78
2022/12/14 05:47:38;;;;;;;;;11.50;11.25;;;;;12.24;77.89;100780.91;146623;573;46016;-77
2022/12/14 05:50:31;;;;;;;;;12.25;10.75;;;;;12.27;77.98;100793.13;146621;617;46010;-77
2022/12/14 05:53:26;;;;;;;;;13.50;11.00;;;;;12.32;77.84;100794.25;146622;563;46012;-76
2022/12/14 05:56:18;;;;;;;;;12.50;10.50;;;;;12.41;78.26;100798.97;146623;573;46020;-75
2022/12/14 05:59:14;;;;;;;;;10.50;8.50;;;;;12.47;78.35;100807.06;146628;611;46016;-75
2022/12/14 06:02:10;;;;;;;;;18.00;15.25;;;;;11.13;77.58;100581.81;146622;595;46010;-77
2022/12/14 06:05:08;;;;;;;;;18.25;13.25;;;;;12.55;78.09;100813.47;146622;576;46017;-81
2022/12/14 06:08:03;;;;;;;;;15.75;14.25;;;;;12.62;77.94;100793.84;146622;606;46010;-81
2022/12/14 06:11:07;;;;;;;;;16.50;12.25;;;;;12.68;77.52;100796.72;146619;566;46016;-82
2022/12/14 06:14:05;;;;;;;;;19.50;16.75;;;;;12.71;78.55;100809.87;146627;619;46010;-81
2022/12/14 06:17:01;;;;;;;;;17.50;14.00;;;;;12.80;79.13;100812.84;146621;572;46016;-82
2022/12/14 06:20:05;;;;;;;;;17.75;15.25;;;;;12.69;79.53;100768.16;146619;607;46021;-82
2022/12/14 06:23:14;;;;;;;;;14.75;14.75;;;;;13.08;78.33;100814.94;146620;596;46012;-80
2022/12/14 06:26:13;;;;;;;;;23.25;20.25;;;;;13.14;77.34;100811.69;146621;583;45020;-80
2022/12/14 06:29:08;;;;;;;;;25.00;21.75;;;;;13.17;76.88;100811.81;146614;603;46017;-81
2022/12/14 06:32:18;;;;;;;;;22.25;16.50;;;;;13.19;76.46;100815.38;146618;570;46010;-81
2022/12/14 06:35:22;;;;;;;;;30.75;23.75;;;;;13.22;76.15;100823.31;146613;595;46013;-82
2022/12/14 06:38:21;;;;;;;;;33.75;28.50;;;;;13.24;75.80;100831.19;146616;718;46012;-80
2022/12/14 06:41:14;;;;;;;;;31.25;24.25;;;;;13.25;75.37;100836.50;146616;636;46012;-81
2022/12/14 06:44:29;;;;;;;;;;;;;;;;;;;;;
2022/12/14 06:47:25;;;;;;;;;36.75;29.00;;;;;13.21;75.22;100839.78;146617;639;46016;-82
2022/12/14 06:50:22;;;;;;;;;24.00;22.25;;;;;13.22;75.87;100845.88;146611;566;46010;-82
2022/12/14 06:53:19;;;;;;;;;20.75;17.75;;;;;13.24;76.10;100847.72;146615;612;46012;-81
2022/12/14 06:56:28;;;;;;;;;14.25;13.50;;;;;13.30;76.60;100849.69;146628;584;46010;-81
2022/12/14 06:59:26;;;;;;;;;21.75;18.75;;;;;13.34;75.20;100842.09;146618;587;46016;-81
2022/12/14 07:02:30;;;;;;;;;18.50;16.25;;;;;13.34;74.84;100849.03;146620;569;46010;-81
2022/12/14 07:05:24;;;;;;;;;19.00;17.00;;;;;13.31;74.39;100847.19;146620;582;46012;-81
2022/12/14 07:08:29;;;;;;;;;;;;;;;;;;;;;
2022/12/14 07:11:35;;;;;;;;;33.00;28.50;;;;;13.33;74.16;100848.16;146617;653;46017;-74
2022/12/14 07:14:28;;;;;;;;;27.75;20.75;;;;;13.32;74.33;100845.47;146613;583;46010;-75
2022/12/14 07:17:29;;;;;;;;;33.00;29.00;;;;;13.32;74.29;100854.16;146614;622;46921;-74
2022/12/14 07:20:25;;;;;;;;;20.00;16.00;;;;;13.32;74.09;100859.38;146612;587;46020;-75
2022/12/14 07:23:17;;;;;;;;;3.00;3.00;;;;;13.26;71.41;100853.00;146626;565;46012;-75
2022/12/14 07:26:26;;;;;;;;;2.00;1.00;;;;;13.22;71.30;100840.66;146634;690;46012;-76
2022/12/14 07:29:27;;;;;;;;;3.00;3.00;;;;;13.16;71.25;100834.34;146630;600;46016;-75
2022/12/14 07:32:33;;;;;;;;;6.00;5.00;;;;;13.18;71.08;100837.03;146631;643;46021;-74
2022/12/14 07:35:32;;;;;;;;;3.33;3.33;;;;;13.21;71.55;100837.19;146629;563;46016;-75
2022/12/14 07:38:27;;;;;;;;;2.00;2.00;;;;;13.24;70.54;100834.69;146633;589;46010;-74
2022/12/14 07:41:33;;;;;;;;;4.75;4.50;;;;;13.29;70.58;100840.13;146631;711;46016;-74
2022/12/14 07:44:28;;;;;;;;;3.33;3.00;;;;;13.34;70.99;100836.00;146625;633;46020;-75
2022/12/14 07:47:28;;;;;;;;;4.67;4.00;;;;;13.43;71.07;100845.91;146624;671;46017;-74
2022/12/14 07:50:27;;;;;;;;;4.50;3.75;;;;;13.50;70.42;100847.94;146620;576;46020;-75
2022/12/14 07:53:30;;;;;;;;;2.25;2.25;;;;;10.78;69.34;100389.13;146618;575;46012;-72
2022/12/14 07:56:36;;;;;;;;;5.50;4.50;;;;;13.50;69.78;100887.03;146624;608;46021;-76
2022/12/14 07:59:34;;;;;;;;;4.25;3.25;;;;;13.49;69.75;100854.88;146621;563;46012;-74
2022/12/14 08:02:26;;;;;;;;;6.00;5.25;;;;;13.47;68.96;100848.69;146626;570;46020;-74
2022/12/14 08:05:19;;;;;;;;;7.25;5.00;;;;;13.42;69.32;100846.72;146620;670;45914;-74
2022/12/14 08:08:16;;;;;;;;;4.75;3.75;;;;;13.38;68.61;100841.38;146625;589;46012;-74
2022/12/14 08:11:23;;;;;;;;;0.00;0.00;;;;;10.70;68.72;100387.00;146619;643;46915;-74
2022/12/14 08:14:22;;;;;;;;;6.00;5.00;;;;;13.33;68.80;100862.84;146625;579;46020;-74
2022/12/14 08:17:17;;;;;;;;;6.00;3.75;;;;;13.34;68.47;100849.91;146621;627;46915;-74
2022/12/14 08:20:18;;;;;;;;;3.25;3.00;;;;;13.36;69.47;100850.87;146620;652;46020;-74
2022/12/14 08:23:20;;;;;;;;;7.00;3.75;;;;;13.38;68.64;100859.63;146621;570;46012;-74
2022/12/14 08:26:18;;;;;;;;;2.50;2.50;;;;;13.41;69.28;100858.88;146626;564;46012;-76
2022/12/14 08:29:13;;;;;;;;;4.00;4.00;;;;;13.48;68.75;100871.31;146621;569;46016;-75
2022/12/14 08:32:19;;;;;;;;;5.00;3.67;;;;;13.31;69.33;100841.97;146628;608;46021;-75
2022/12/14 08:35:15;;;;;;;;;4.00;4.00;;;;;13.59;69.66;100887.41;146619;571;46012;-74
2022/12/14 08:38:17;;;;;;;;;4.00;3.00;;;;;13.58;68.96;100886.53;146627;569;45020;-73
2022/12/14 08:41:40;;;;;;;;;7.25;5.75;;;;;10.90;69.14;100417.28;146621;658;46014;-75
2022/12/14 08:44:54;;;;;;;;;;;;;;;;;;;;;
2022/12/14 08:47:51;;;;;;;;;11.00;11.00;;;;;13.57;70.33;100894.25;146623;586;46016;-73
2022/12/14 08:50:51;;;;;;;;;6.50;6.50;;;;;13.59;69.88;100890.91;146628;624;46010;-76
2022/12/14 08:53:57;;;;;;;;;6.33;4.33;;;;;10.99;69.62;100445.38;146634;599;45037;-75
2022/12/14 08:56:53;;;;;;;;;7.25;7.25;;;;;13.53;70.46;100895.84;146636;648;45021;-74
2022/12/14 08:59:46;;;;;;;;;4.67;4.00;;;;;13.52;70.68;100880.13;146634;679;46012;-76
2022/12/14 09:02:45;;;;;;;;;4.33;4.00;;;;;13.49;70.69;100891.34;146633;569;46021;-75
2022/12/14 09:05:43;;;;;;;;;6.50;5.75;;;;;13.46;70.97;100887.69;146631;680;45915;-74
2022/12/14 09:08:51;;;;;;;;;;;;;;;;;;;;;
2022/12/14 09:11:44;;;;;;;;;6.00;5.25;;;;;13.33;71.17;100879.41;146632;613;45913;-76
2022/12/14 09:14:48;;;;;;;;;7.75;7.25;;;;;13.35;70.83;100885.53;146637;614;46010;-75
2022/12/14 09:17:46;;;;;;;;;6.50;6.00;;;;;13.30;71.54;100899.19;146630;594;46017;-76
2022/12/14 09:20:50;;;;;;;;;7.33;6.33;;;;;13.29;71.43;100884.37;146631;631;46012;-75
2022/12/14 09:23:56;;;;;;;;;;;;;;;;;;;;;
2022/12/14 09:26:51;;;;;;;;;6.25;5.50;;;;;13.31;71.37;100852.38;146635;618;46020;-77
2022/12/14 09:29:50;;;;;;;;;5.00;5.00;;;;;13.31;71.30;100867.13;146630;628;46016;-76
2022/12/14 09:32:45;;;;;;;;;5.00;5.00;;;;;13.28;72.13;100869.59;146634;613;45021;-75
2022/12/14 09:35:37;;;;;;;;;5.25;5.00;;;;;13.26;72.43;100859.09;146628;564;46016;-76
2022/12/14 09:38:32;;;;;;;;;4.00;3.50;;;;;13.27;71.34;100849.56;146635;601;46012;-76
2022/12/14 09:41:58;;;;;;;;;7.25;5.00;;;;;13.30;71.47;100845.41;146633;686;46014;-74
2022/12/14 09:45:28;;;;;;;;;8.50;6.00;;;;;13.32;71.48;100837.66;146633;570;46020;-75
2022/12/14 09:48:28;;;;;;;;;5.25;5.25;;;;;13.33;72.03;100847.22;146628;576;46913;-76
2022/12/14 09:51:37;;;;;;;;;7.75;6.75;;;;;13.36;71.80;100849.97;146626;622;46020;-76
2022/12/14 09:54:53;;;;;;;;;8.50;6.50;;;;;10.66;70.38;100377.31;146630;588;46016;-75
2022/12/14 09:58:13;;;;;;;;;11.50;9.00;;;;;10.86;69.87;100402.44;146631;591;45030;-75
2022/12/14 10:01:52;;;;;;;;;8.00;6.50;;;;;10.87;70.51;100383.44;146629;609;46013;-75
2022/12/14 10:05:24;;;;;;;;;10.75;8.00;;;;;13.70;70.70;100856.56;146629;579;47020;-75
2022/12/14 10:08:55;;;;;;;;;9.00;7.75;;;;;13.85;69.83;100854.59;146627;648;46017;-74
2022/12/14 10:12:20;;;;;;;;;4.50;4.50;;;;;13.85;67.80;100865.88;146632;687;46020;-75
2022/12/14 10:15:54;;;;;;;;;5.50;4.25;;;;;13.81;68.39;100864.00;146630;584;46017;-75
2022/12/14 10:19:28;;;;;;;;;7.50;6.50;;;;;13.79;69.12;100877.78;146630;569;46020;-76
2022/12/14 10:22:52;;;;;;;;;7.75;7.00;;;;;13.80;68.29;100879.56;146627;596;46012;-76
2022/12/14 10:25:47;;;;;;;;;8.00;8.00;;;;;13.80;68.42;100892.59;146627;570;46021;-75
2022/12/14 10:29:21;;;;;;;;;6.00;6.00;;;;;13.75;67.63;100875.91;146629;569;46915;-75
2022/12/14 10:32:44;;;;;;;;;9.00;7.75;;;;;10.90;67.62;100390.47;146632;567;46020;-76
2022/12/14 10:36:01;;;;;;;;;5.00;5.00;;;;;13.50;68.52;100850.56;146632;642;46012;-74
2022/12/14 10:39:48;;;;;;;;;5.25;5.25;;;;;10.71;68.35;100368.03;146634;651;46012;-75
2022/12/14 10:43:23;;;;;;;;;7.75;6.75;;;;;10.78;68.81;100396.03;146632;655;46012;-74
2022/12/14 10:47:08;;;;;;;;;8.25;6.25;;;;;13.29;69.24;100841.00;146636;580;46023;-75
2022/12/14 10:50:38;;;;;;;;;6.00;5.50;;;;;13.30;69.31;100837.59;146626;575;46016;-74
2022/12/14 10:54:03;;;;;;;;;8.50;7.25;;;;;13.20;69.55;100801.53;146634;674;45021;-75
2022/12/14 10:57:04;;;;;;;;;7.25;6.00;;;;;13.32;69.13;100816.81;146628;563;46016;-75
2022/12/14 11:00:04;;;;;;;;;6.00;6.00;;;;;13.31;68.84;100821.13;146629;624;45048;-73
2022/12/14 11:03:05;;;;;;;;;8.50;7.00;;;;;13.30;68.66;100818.44;146629;713;46016;-73
2022/12/14 11:06:23;;;;;;;;;6.50;5.50;;;;;10.91;68.97;100398.34;146631;579;46020;-75
2022/12/14 11:09:37;;;;;;;;;7.00;6.00;;;;;13.32;69.04;100815.09;146630;672;46012;-73
2022/12/14 11:12:46;;;;;;;;;7.50;6.50;;;;;13.31;68.74;100804.62;146637;573;45020;-75
2022/12/14 11:16:01;;;;;;;;;11.50;10.75;;;;;10.68;68.64;100344.53;146625;617;46017;-75
2022/12/14 11:19:07;;;;;;;;;13.50;10.75;;;;;13.32;69.06;100790.78;146624;591;47010;-73
2022/12/14 11:22:31;;;;;;;;;8.50;7.75;;;;;13.32;69.25;100786.44;146627;637;46017;-74
2022/12/14 11:25:52;;;;;;;;;9.00;8.50;;;;;13.34;69.08;100794.34;146633;649;46020;-74
2022/12/14 11:29:02;;;;;;;;;16.50;14.75;;;;;10.69;68.85;100315.22;146624;575;46915;-73
2022/12/14 11:31:57;;;;;;;;;11.00;9.75;;;;;13.32;69.37;100764.72;146623;579;46020;-76
2022/12/14 11:35:23;;;;;;;;;14.50;12.00;;;;;10.71;69.26;100298.00;146624;654;46014;-74
2022/12/14 11:38:41;;;;;;;;;;;;;;;;;;;;;
2022/12/14 11:41:47;;;;;;;;;7.25;6.50;;;;;13.33;69.60;100756.06;146629;664;46016;-74
2022/12/14 11:45:26;;;;;;;;;6.25;6.25;;;;;10.81;69.66;100323.50;146631;570;46021;-74
2022/12/14 11:48:37;;;;;;;;;8.25;6.75;;;;;13.36;69.78;100758.81;146643;578;46012;-74
2022/12/14 11:51:31;;;;;;;;;7.25;6.25;;;;;13.41;69.29;100754.69;146647;565;45021;-75
2022/12/14 11:54:24;;;;;;;;;13.00;10.25;;;;;13.43;69.78;100750.44;146640;723;46012;-76
2022/12/14 11:57:54;;;;;;;;;10.75;8.75;;;;;10.60;69.07;100264.72;146640;701;46012;-74
2022/12/14 12:00:58;;;;;;;;;8.00;7.50;;;;;13.40;69.26;100751.19;146644;668;45016;-74
2022/12/14 12:04:03;;;;;;;;;8.50;8.50;;;;;13.42;69.50;100745.16;146646;595;46020;-75
2022/12/14 12:06:59;;;;;;;;;6.00;6.00;;;;;13.49;69.32;100749.75;146646;613;45017;-74
2022/12/14 12:09:57;;;;;;;;;7.75;7.25;;;;;13.43;69.48;100755.66;146648;709;45020;-77
2022/12/14 12:13:03;;;;;;;;;7.75;5.00;;;;;13.41;69.38;100757.28;146644;605;46016;-74
2022/12/14 12:16:25;;;;;;;;;7.50;5.50;;;;;13.37;69.76;100753.69;146649;579;45021;-74
2022/12/14 12:19:47;;;;;;;;;8.00;7.00;;;;;13.39;69.38;100751.12;146642;608;46012;-76
2022/12/14 12:22:52;;;;;;;;;13.25;9.75;;;;;13.39;69.14;100746.81;146647;696;45020;-73
2022/12/14 12:25:57;;;;;;;;;9.75;8.75;;;;;13.42;69.41;100735.63;146643;570;46917;-74
2022/12/14 12:29:13;;;;;;;;;4.25;4.25;;;;;13.41;69.03;100733.84;146650;564;45010;-73
2022/12/14 12:32:37;;;;;;;;;11.50;10.00;;;;;11.87;69.30;100458.75;146643;716;45012;-76
2022/12/14 12:36:02;;;;;;;;;7.50;6.50;;;;;13.40;69.28;100727.75;146646;624;45020;-73
2022/12/14 12:39:11;;;;;;;;;7.00;7.00;;;;;13.42;68.94;100719.09;146646;710;45012;-75
2022/12/14 12:43:00;;;;;;;;;7.00;6.50;;;;;10.68;68.99;100246.87;146645;575;45020;-74
2022/12/14 12:46:25;;;;;;;;;7.25;6.50;;;;;10.66;68.75;100234.72;146638;583;46012;-75
2022/12/14 12:49:25;;;;;;;;;9.00;7.50;;;;;13.45;68.69;100722.72;146634;569;46022;-73
2022/12/14 12:53:01;;;;;;;;;13.75;10.50;;;;;13.50;68.84;100712.50;146627;579;46012;-73
2022/12/14 12:56:20;;;;;;;;;10.50;6.75;;;;;13.48;68.80;100725.44;146628;645;46020;-74
2022/12/14 12:59:44;;;;;;;;;3.25;3.25;;;;;10.70;68.89;100246.97;146630;642;46018;-74
2022/12/14 13:03:14;;;;;;;;;8.00;5.25;;;;;13.43;69.69;100732.19;146634;611;46010;-75
2022/12/14 13:06:39;;;;;;;;;6.50;6.00;;;;;13.43;69.44;100739.09;146625;634;46915;-74
2022/12/14 13:10:09;;;;;;;;;18.75;17.50;;;;;10.66;70.09;100266.72;146621;589;46020;-73
2022/12/14 13:13:18;;;;;;;;;18.25;16.00;;;;;13.44;70.20;100748.72;146618;579;46012;-74
2022/12/14 13:16:38;;;;;;;;;16.75;15.00;;;;;10.90;69.99;100308.34;146624;622;46020;-74
2022/12/14 13:19:53;;;;;;;;;11.25;10.25;;;;;13.46;70.47;100749.63;146625;582;46016;-76
2022/12/14 13:22:52;;;;;;;;;20.25;17.75;;;;;13.45;70.33;100747.88;146617;630;47010;-74
2022/12/14 13:26:23;;;;;;;;;15.00;15.00;;;;;13.42;70.75;100760.78;146619;683;46916;-74
2022/12/14 13:30:00;;;;;;;;;10.75;8.25;;;;;10.65;70.37;100285.66;146632;661;46021;-75
2022/12/14 13:33:41;;;;;;;;;17.75;15.00;;;;;13.44;70.27;100767.84;146621;622;46016;-73
2022/12/14 13:37:25;;;;;;;;;22.25;18.00;;;;;10.67;70.12;100289.22;146622;584;46021;-75
2022/12/14 13:40:57;;;;;;;;;10.25;7.50;;;;;13.49;70.07;100776.72;146627;597;46012;-74
2022/12/14 13:44:37;;;;;;;;;10.75;10.00;;;;;10.81;69.88;100305.34;146620;566;46010;-74
2022/12/14 13:47:54;;;;;;;;;5.00;3.75;;;;;10.84;69.81;100309.00;146644;571;45016;-74
2022/12/14 13:51:22;;;;;;;;;10.75;10.50;;;;;13.49;70.10;100766.31;146643;587;45021;-73
2022/12/14 13:54:45;;;;;;;;;18.25;16.75;;;;;11.93;69.72;100487.59;146634;597;45031;-74
2022/12/14 13:57:41;;;;;;;;;13.75;13.75;;;;;13.43;70.35;100760.84;146705;576;45023;-75
2022/12/14 14:01:39;;;;;;;;;12.00;8.25;;;;;11.98;69.97;100495.56;146616;665;46016;-73
2022/12/14 14:04:48;;;;;;;;;;;;;;;;;;;;;
2022/12/14 14:08:11;;;;;;;;;16.25;13.25;;;;;11.90;70.40;100492.66;146617;608;46016;-74
2022/12/14 14:11:41;;;;;;;;;14.25;12.25;;;;;13.35;70.59;100760.53;146620;582;46021;-74
2022/12/14 14:15:34;;;;;;;;;13.25;12.00;;;;;11.87;70.47;100507.22;146616;602;46917;-74
2022/12/14 14:19:03;;;;;;;;;12.50;12.25;;;;;11.85;70.48;100520.16;146619;607;46020;-75
2022/12/14 14:22:26;;;;;;;;;14.50;13.00;;;;;11.75;70.79;100517.97;146617;604;46014;-72
2022/12/14 14:25:43;;;;;;;;;19.00;16.50;;;;;13.18;71.51;100757.22;146620;581;46010;-73
2022/12/14 14:28:41;;;;;;;;;13.50;11.50;;;;;11.92;71.74;100534.28;146618;670;46013;-72
2022/12/14 14:32:34;;;;;;;;;14.00;12.50;;;;;11.87;71.36;100528.00;146618;710;46021;-73
2022/12/14 14:35:45;;;;;;;;;20.50;16.75;;;;;13.13;71.10;100740.50;146617;632;48012;-78
2022/12/14 14:39:09;;;;;;;;;16.75;15.50;;;;;13.11;71.72;100744.75;146620;740;47025;-76
2022/12/14 14:42:09;;;;;;;;;33.50;25.75;;;;;13.08;71.93;100744.66;146617;569;47012;-76
2022/12/14 14:45:30;;;;;;;;;30.75;25.75;;;;;13.04;72.24;100742.72;146619;570;46012;-78
2022/12/14 14:48:53;;;;;;;;;;;;;;;;;;;;;
2022/12/14 14:52:01;;;;;;;;;21.00;19.50;;;;;13.01;72.19;100726.09;146622;562;46021;-74
2022/12/14 14:55:23;;;;;;;;;16.25;12.25;;;;;12.99;72.28;100730.34;146621;753;45016;-75
2022/12/14 14:58:34;;;;;;;;;15.00;12.00;;;;;12.89;71.80;100706.53;146622;572;46020;-74
2022/12/14 15:01:32;;;;;;;;;17.00;15.25;;;;;13.00;72.06;100720.00;146620;569;46012;-74
2022/12/14 15:04:55;;;;;;;;;11.75;10.00;;;;;13.00;71.42;100720.00;146621;589;46020;-76
2022/12/14 15:07:47;;;;;;;;;19.00;18.00;;;;;13.00;72.31;100725.22;146616;564;46017;-81
2022/12/14 15:10:47;;;;;;;;;19.75;16.50;;;;;12.99;72.32;100735.53;146621;585;46020;-79
2022/12/14 15:14:15;;;;;;;;;27.50;26.25;;;;;12.99;72.96;100732.94;146620;722;46017;-80